sensor_id;sensor_type;location;lat;lon;timestamp;pressure;altitude;pressure_sealevel;temperature;humidity
20156;BME280;10238;49.556;10.956;2022-12-07T00:02:23;98329.53;;;2.68;100.00
20156;BME280;10238;49.556;10.956;2022-12-07T00:05:11;98322.50;;;2.69;100.00
20156;BME280;10238;49.556;10.956;2022-12-07T00:08:01;98324.19;;;2.70;100.00
20156;BME280;10238;49.556;10.956;2022-12-07T00:10:49;98325.13;;;2.69;100.00
20156;BME280;10238;49.556;10.956;2022-12-07T00:13:38;98320.81;;;2.68;100.00
20156;BME280;10238;49.556;10.956;2022-12-07T00:16:31;98319.16;;;2.67;100.00
20156;BME280;10238;49.556;10.956;2022-12-07T00:19:21;98320.81;;;2.68;100.00
20156;BME280;10238;49.556;10.956;2022-12-07T00:22:09;98316.53;;;2.67;100.00
20156;BME280;10238;49.556;10.956;2022-12-07T00:24:58;98322.72;;;2.66;100.00
20156;BME280;10238;49.556;10.956;2022-12-07T00:27:46;98319.16;;;2.67;100.00
20156;BME280;10238;49.556;10.956;2022-12-07T00:30:34;98325.25;;;2.67;100.00
20156;BME280;10238;49.556;10.956;2022-12-07T00:33:22;98315.69;;;2.66;100.00
20156;BME280;10238;49.556;10.956;2022-12-07T00:36:14;98313.06;;;2.66;100.00
20156;BME280;10238;49.556;10.956;2022-12-07T00:39:07;98306.13;;;2.65;100.00
20156;BME280;10238;49.556;10.956;2022-12-07T00:41:55;98309.72;;;2.64;100.00
20156;BME280;10238;49.556;10.956;2022-12-07T00:44:43;98308.97;;;2.62;100.00
20156;BME280;10238;49.556;10.956;2022-12-07T00:47:31;98314.13;;;2.64;100.00
20156;BME280;10238;49.556;10.956;2022-12-07T00:50:19;98309.94;;;2.61;100.00
20156;BME280;10238;49.556;10.956;2022-12-07T00:53:08;98316.84;;;2.62;100.00
20156;BME280;10238;49.556;10.956;2022-12-07T00:55:56;98306.56;;;2.59;100.00
20156;BME280;10238;49.556;10.956;2022-12-07T00:58:49;98314.31;;;2.61;100.00
20156;BME280;10238;49.556;10.956;2022-12-07T01:01:37;98312.66;;;2.60;100.00
20156;BME280;10238;49.556;10.956;2022-12-07T01:04:26;98312.66;;;2.60;100.00
20156;BME280;10238;49.556;10.956;2022-12-07T01:07:16;98310.03;;;2.60;100.00
20156;BME280;10238;49.556;10.956;2022-12-07T01:10:07;98312.66;;;2.60;100.00
20156;BME280;10238;49.556;10.956;2022-12-07T01:12:55;98312.66;;;2.60;100.00
20156;BME280;10238;49.556;10.956;2022-12-07T01:15:44;98312.75;;;2.58;100.00
20156;BME280;10238;49.556;10.956;2022-12-07T01:18:35;98316.25;;;2.59;100.00
20156;BME280;10238;49.556;10.956;2022-12-07T01:21:25;98314.53;;;2.58;100.00
20156;BME280;10238;49.556;10.956;2022-12-07T01:24:13;98311.19;;;2.56;100.00
20156;BME280;10238;49.556;10.956;2022-12-07T01:27:03;98310.13;;;2.58;100.00
20156;BME280;10238;49.556;10.956;2022-12-07T01:29:51;98311.00;;;2.59;100.00
20156;BME280;10238;49.556;10.956;2022-12-07T01:32:39;98307.63;;;2.57;100.00
20156;BME280;10238;49.556;10.956;2022-12-07T01:35:28;98307.50;;;2.58;100.00
20156;BME280;10238;49.556;10.956;2022-12-07T01:38:16;98309.28;;;2.58;100.00
20156;BME280;10238;49.556;10.956;2022-12-07T01:41:04;98314.53;;;2.58;100.00
20156;BME280;10238;49.556;10.956;2022-12-07T01:44:15;98317.16;;;2.58;100.00
20156;BME280;10238;49.556;10.956;2022-12-07T01:47:04;98309.50;;;2.55;100.00
20156;BME280;10238;49.556;10.956;2022-12-07T01:49:55;98314.63;;;2.56;100.00
20156;BME280;10238;49.556;10.956;2022-12-07T01:52:45;98317.25;;;2.56;100.00
20156;BME280;10238;49.556;10.956;2022-12-07T01:55:40;98307.72;;;2.55;100.00
20156;BME280;10238;49.556;10.956;2022-12-07T01:58:29;98314.75;;;2.55;100.00
20156;BME280;10238;49.556;10.956;2022-12-07T02:01:19;98311.41;;;2.53;100.00
20156;BME280;10238;49.556;10.956;2022-12-07T02:04:07;98308.69;;;2.54;100.00
20156;BME280;10238;49.556;10.956;2022-12-07T02:06:55;98313.06;;;2.54;100.00
20156;BME280;10238;49.556;10.956;2022-12-07T02:09:45;98304.47;;;2.52;100.00
20156;BME280;10238;49.556;10.956;2022-12-07T02:12:33;98307.09;;;2.52;100.00
20156;BME280;10238;49.556;10.956;2022-12-07T02:15:26;98310.66;;;2.51;100.00
20156;BME280;10238;49.556;10.956;2022-12-07T02:18:25;98301.13;;;2.50;100.00
20156;BME280;10238;49.556;10.956;2022-12-07T02:21:23;98301.13;;;2.50;100.00
20156;BME280;10238;49.556;10.956;2022-12-07T02:24:25;98300.28;;;2.49;100.00
20156;BME280;10238;49.556;10.956;2022-12-07T02:27:37;98300.16;;;2.51;100.00
20156;BME280;10238;49.556;10.956;2022-12-07T02:30:30;98307.19;;;2.50;100.00
20156;BME280;10238;49.556;10.956;2022-12-07T02:33:24;98297.75;;;2.48;100.00
20156;BME280;10238;49.556;10.956;2022-12-07T02:36:17;98300.38;;;2.48;100.00
20156;BME280;10238;49.556;10.956;2022-12-07T02:39:14;98295.34;;;2.45;100.00
20156;BME280;10238;49.556;10.956;2022-12-07T02:42:12;98287.47;;;2.45;100.00
20156;BME280;10238;49.556;10.956;2022-12-07T02:45:02;98278.03;;;2.42;100.00
20156;BME280;10238;49.556;10.956;2022-12-07T02:47:55;98271.25;;;2.40;100.00
20156;BME280;10238;49.556;10.956;2022-12-07T02:50:48;98264.28;;;2.39;100.00
20156;BME280;10238;49.556;10.956;2022-12-07T02:53:37;98269.97;;;2.33;100.00
20156;BME280;10238;49.556;10.956;2022-12-07T02:56:29;98251.94;;;2.28;100.00
20156;BME280;10238;49.556;10.956;2022-12-07T02:59:28;98254.16;;;2.21;100.00
20156;BME280;10238;49.556;10.956;2022-12-07T03:02:27;98256.03;;;2.19;100.00
20156;BME280;10238;49.556;10.956;2022-12-07T03:05:47;98262.13;;;2.20;100.00
20156;BME280;10238;49.556;10.956;2022-12-07T03:08:48;98259.59;;;2.18;100.00
20156;BME280;10238;49.556;10.956;2022-12-07T03:11:46;98250.28;;;2.14;100.00
20156;BME280;10238;49.556;10.956;2022-12-07T03:14:44;98253.94;;;2.12;100.00
20156;BME280;10238;49.556;10.956;2022-12-07T03:17:37;98254.16;;;2.09;100.00
20156;BME280;10238;49.556;10.956;2022-12-07T03:20:28;98253.53;;;2.05;100.00
20156;BME280;10238;49.556;10.956;2022-12-07T03:23:19;98252.78;;;2.03;100.00
20156;BME280;10238;49.556;10.956;2022-12-07T03:26:11;98248.50;;;2.02;100.00
20156;BME280;10238;49.556;10.956;2022-12-07T03:29:04;98251.97;;;2.03;100.00
20156;BME280;10238;49.556;10.956;2022-12-07T03:32:01;98256.44;;;2.01;100.00
20156;BME280;10238;49.556;10.956;2022-12-07T03:34:56;98247.03;;;1.98;100.00
20156;BME280;10238;49.556;10.956;2022-12-07T03:37:49;98238.41;;;1.96;100.00
20156;BME280;10238;49.556;10.956;2022-12-07T03:40:44;98230.75;;;1.93;100.00
20156;BME280;10238;49.556;10.956;2022-12-07T03:43:36;98251.94;;;1.90;100.00
20156;BME280;10238;49.556;10.956;2022-12-07T03:46:33;98256.47;;;1.88;100.00
20156;BME280;10238;49.556;10.956;2022-12-07T03:49:30;98251.41;;;1.85;100.00
20156;BME280;10238;49.556;10.956;2022-12-07T03:52:23;98245.53;;;1.82;100.00
20156;BME280;10238;49.556;10.956;2022-12-07T03:55:16;98241.34;;;1.79;100.00
20156;BME280;10238;49.556;10.956;2022-12-07T03:58:11;98240.72;;;1.76;100.00
20156;BME280;10238;49.556;10.956;2022-12-07T04:01:00;98249.63;;;1.73;100.00
20156;BME280;10238;49.556;10.956;2022-12-07T04:03:48;98248.06;;;1.71;100.00
20156;BME280;10238;49.556;10.956;2022-12-07T04:06:36;98249.06;;;1.68;100.00
20156;BME280;10238;49.556;10.956;2022-12-07T04:09:24;98251.91;;;1.65;100.00
20156;BME280;10238;49.556;10.956;2022-12-07T04:12:12;98255.47;;;1.64;100.00
20156;BME280;10238;49.556;10.956;2022-12-07T04:15:02;98252.09;;;1.62;100.00
20156;BME280;10238;49.556;10.956;2022-12-07T04:17:50;98253.06;;;1.61;100.00
20156;BME280;10238;49.556;10.956;2022-12-07T04:20:38;98254.09;;;1.59;100.00
20156;BME280;10238;49.556;10.956;2022-12-07T04:23:26;98253.47;;;1.55;100.00
20156;BME280;10238;49.556;10.956;2022-12-07T04:26:14;98250.03;;;1.55;100.00
20156;BME280;10238;49.556;10.956;2022-12-07T04:29:02;98255.34;;;1.53;100.00
20156;BME280;10238;49.556;10.956;2022-12-07T04:31:55;98245.81;;;1.52;100.00
20156;BME280;10238;49.556;10.956;2022-12-07T04:34:43;98249.38;;;1.51;100.00
20156;BME280;10238;49.556;10.956;2022-12-07T04:37:31;98249.47;;;1.50;100.00
20156;BME280;10238;49.556;10.956;2022-12-07T04:40:19;98253.66;;;1.52;100.00
20156;BME280;10238;49.556;10.956;2022-12-07T04:43:07;98250.31;;;1.50;100.00
20156;BME280;10238;49.556;10.956;2022-12-07T04:45:55;98245.09;;;1.50;100.00
20156;BME280;10238;49.556;10.956;2022-12-07T04:48:44;98239.09;;;1.48;100.00
20156;BME280;10238;49.556;10.956;2022-12-07T04:51:32;98240.88;;;1.48;100.00
20156;BME280;10238;49.556;10.956;2022-12-07T04:54:21;98243.59;;;1.46;100.00
20156;BME280;10238;49.556;10.956;2022-12-07T04:57:09;98239.31;;;1.45;100.00
20156;BME280;10238;49.556;10.956;2022-12-07T04:59:57;98247.81;;;1.49;100.00
20156;BME280;10238;49.556;10.956;2022-12-07T05:02:47;98246.00;;;1.49;100.00
20156;BME280;10238;49.556;10.956;2022-12-07T05:05:39;98247.69;;;1.50;100.00
20156;BME280;10238;49.556;10.956;2022-12-07T05:08:27;98251.25;;;1.49;100.00
20156;BME280;10238;49.556;10.956;2022-12-07T05:11:15;98250.31;;;1.50;100.00
20156;BME280;10238;49.556;10.956;2022-12-07T05:14:19;98252.00;;;1.51;100.00
20156;BME280;10238;49.556;10.956;2022-12-07T05:17:07;98250.94;;;1.54;100.00
20156;BME280;10238;49.556;10.956;2022-12-07T05:19:56;98250.84;;;1.55;100.00
20156;BME280;10238;49.556;10.956;2022-12-07T05:22:45;98245.59;;;1.55;100.00
20156;BME280;10238;49.556;10.956;2022-12-07T05:25:34;98249.91;;;1.56;100.00
20156;BME280;10238;49.556;10.956;2022-12-07T05:28:21;98246.56;;;1.54;100.00
20156;BME280;10238;49.556;10.956;2022-12-07T05:31:09;98242.16;;;1.55;100.00
20156;BME280;10238;49.556;10.956;2022-12-07T05:33:57;98253.47;;;1.55;100.00
20156;BME280;10238;49.556;10.956;2022-12-07T05:36:45;98248.22;;;1.55;100.00
20156;BME280;10238;49.556;10.956;2022-12-07T05:39:35;98252.53;;;1.56;100.00
20156;BME280;10238;49.556;10.956;2022-12-07T05:42:24;98249.91;;;1.56;100.00
20156;BME280;10238;49.556;10.956;2022-12-07T05:45:13;98246.56;;;1.54;100.00
20156;BME280;10238;49.556;10.956;2022-12-07T05:48:01;98250.03;;;1.55;100.00
20156;BME280;10238;49.556;10.956;2022-12-07T05:50:50;98249.16;;;1.54;100.00
20156;BME280;10238;49.556;10.956;2022-12-07T05:53:38;98243.94;;;1.54;100.00
20156;BME280;10238;49.556;10.956;2022-12-07T05:56:29;98240.38;;;1.55;100.00
20156;BME280;10238;49.556;10.956;2022-12-07T05:59:17;98241.13;;;1.57;100.00
20156;BME280;10238;49.556;10.956;2022-12-07T06:02:13;98238.38;;;1.59;100.00
20156;BME280;10238;49.556;10.956;2022-12-07T06:05:02;98238.50;;;1.57;100.00
20156;BME280;10238;49.556;10.956;2022-12-07T06:07:50;98237.75;;;1.55;100.00
20156;BME280;10238;49.556;10.956;2022-12-07T06:10:38;98235.88;;;1.57;100.00
20156;BME280;10238;49.556;10.956;2022-12-07T06:13:27;98236.59;;;1.59;100.00
20156;BME280;10238;49.556;10.956;2022-12-07T06:16:14;98236.59;;;1.59;100.00
20156;BME280;10238;49.556;10.956;2022-12-07T06:19:02;98243.53;;;1.60;100.00
20156;BME280;10238;49.556;10.956;2022-12-07T06:21:51;98243.53;;;1.60;100.00
20156;BME280;10238;49.556;10.956;2022-12-07T06:24:39;98243.53;;;1.60;100.00
20156;BME280;10238;49.556;10.956;2022-12-07T06:27:27;98235.66;;;1.60;100.00
20156;BME280;10238;49.556;10.956;2022-12-07T06:30:17;98233.06;;;1.60;100.00
20156;BME280;10238;49.556;10.956;2022-12-07T06:33:05;98230.53;;;1.59;100.00
20156;BME280;10238;49.556;10.956;2022-12-07T06:35:53;98228.72;;;1.59;100.00
20156;BME280;10238;49.556;10.956;2022-12-07T06:38:45;98229.69;;;1.58;100.00
20156;BME280;10238;49.556;10.956;2022-12-07T06:41:33;98229.69;;;1.58;100.00
20156;BME280;10238;49.556;10.956;2022-12-07T06:44:22;98232.94;;;1.62;100.00
20156;BME280;10238;49.556;10.956;2022-12-07T06:47:12;98235.38;;;1.65;100.00
20156;BME280;10238;49.556;10.956;2022-12-07T06:50:20;98238.91;;;1.64;100.00
20156;BME280;10238;49.556;10.956;2022-12-07T06:53:08;98245.00;;;1.64;100.00
20156;BME280;10238;49.556;10.956;2022-12-07T06:55:56;98239.66;;;1.66;100.00
20156;BME280;10238;49.556;10.956;2022-12-07T06:58:44;98235.25;;;1.66;100.00
20156;BME280;10238;49.556;10.956;2022-12-07T07:01:35;98237.78;;;1.68;100.00
20156;BME280;10238;49.556;10.956;2022-12-07T07:04:27;98246.34;;;1.70;100.00
20156;BME280;10238;49.556;10.956;2022-12-07T07:07:15;98247.19;;;1.70;100.00
20156;BME280;10238;49.556;10.956;2022-12-07T07:10:05;98242.91;;;1.69;100.00
20156;BME280;10238;49.556;10.956;2022-12-07T07:12:53;98248.06;;;1.71;100.00
20156;BME280;10238;49.556;10.956;2022-12-07T07:15:43;98246.06;;;1.74;100.00
20156;BME280;10238;49.556;10.956;2022-12-07T07:18:31;98245.13;;;1.75;100.00
20156;BME280;10238;49.556;10.956;2022-12-07T07:21:21;98238.19;;;1.74;100.00
20156;BME280;10238;49.556;10.956;2022-12-07T07:24:09;98232.75;;;1.77;100.00
20156;BME280;10238;49.556;10.956;2022-12-07T07:26:57;98243.03;;;1.80;100.00
20156;BME280;10238;49.556;10.956;2022-12-07T07:29:45;98236.13;;;1.79;100.00
20156;BME280;10238;49.556;10.956;2022-12-07T07:32:33;98249.13;;;1.81;100.00
20156;BME280;10238;49.556;10.956;2022-12-07T07:35:21;98247.19;;;1.83;100.00
20156;BME280;10238;49.556;10.956;2022-12-07T07:38:11;98251.41;;;1.85;100.00
20156;BME280;10238;49.556;10.956;2022-12-07T07:40:58;98248.59;;;1.88;100.00
20156;BME280;10238;49.556;10.956;2022-12-07T07:43:46;98258.13;;;1.89;100.00
20156;BME280;10238;49.556;10.956;2022-12-07T07:46:35;98257.91;;;1.92;100.00
20156;BME280;10238;49.556;10.956;2022-12-07T07:49:23;98258.03;;;1.91;100.00
20156;BME280;10238;49.556;10.956;2022-12-07T07:52:11;98255.19;;;1.94;100.00
20156;BME280;10238;49.556;10.956;2022-12-07T07:55:00;98258.44;;;1.97;100.00
20156;BME280;10238;49.556;10.956;2022-12-07T07:57:48;98257.31;;;2.01;100.00
20156;BME280;10238;49.556;10.956;2022-12-07T08:00:40;98263.16;;;2.05;100.00
20156;BME280;10238;49.556;10.956;2022-12-07T08:03:29;98257.72;;;2.08;100.00
20156;BME280;10238;49.556;10.956;2022-12-07T08:06:33;98265.47;;;2.09;100.00
20156;BME280;10238;49.556;10.956;2022-12-07T08:09:21;98258.34;;;2.11;100.00
20156;BME280;10238;49.556;10.956;2022-12-07T08:12:11;98258.13;;;2.14;100.00
20156;BME280;10238;49.556;10.956;2022-12-07T08:15:01;98259.81;;;2.15;100.00
20156;BME280;10238;49.556;10.956;2022-12-07T08:17:51;98256.22;;;2.16;100.00
20156;BME280;10238;49.556;10.956;2022-12-07T08:20:40;98261.06;;;2.22;100.00
20156;BME280;10238;49.556;10.956;2022-12-07T08:23:28;98257.41;;;2.25;100.00
20156;BME280;10238;49.556;10.956;2022-12-07T08:26:25;98263.25;;;2.28;100.00
20156;BME280;10238;49.556;10.956;2022-12-07T08:29:14;98255.19;;;2.32;100.00
20156;BME280;10238;49.556;10.956;2022-12-07T08:32:02;98263.78;;;2.34;100.00
20156;BME280;10238;49.556;10.956;2022-12-07T08:34:55;98255.59;;;2.38;100.00
20156;BME280;10238;49.556;10.956;2022-12-07T08:37:43;98254.75;;;2.38;100.00
20156;BME280;10238;49.556;10.956;2022-12-07T08:40:31;98255.28;;;2.43;100.00
20156;BME280;10238;49.556;10.956;2022-12-07T08:43:19;98260.44;;;2.44;100.00
20156;BME280;10238;49.556;10.956;2022-12-07T08:46:13;98257.47;;;2.49;100.00
20156;BME280;10238;49.556;10.956;2022-12-07T08:49:05;98265.66;;;2.57;100.00
20156;BME280;10238;49.556;10.956;2022-12-07T08:51:56;98265.44;;;2.60;100.00
20156;BME280;10238;49.556;10.956;2022-12-07T08:54:44;98263.56;;;2.62;100.00
20156;BME280;10238;49.556;10.956;2022-12-07T08:57:34;98262.59;;;2.63;100.00
20156;BME280;10238;49.556;10.956;2022-12-07T09:00:22;98257.84;;;2.68;100.00
20156;BME280;10238;49.556;10.956;2022-12-07T09:03:12;98264.78;;;2.69;100.00
20156;BME280;10238;49.556;10.956;2022-12-07T09:06:03;98262.16;;;2.69;100.00
20156;BME280;10238;49.556;10.956;2022-12-07T09:08:55;98269.81;;;2.72;100.00
20156;BME280;10238;49.556;10.956;2022-12-07T09:11:45;98266.03;;;2.76;100.00
20156;BME280;10238;49.556;10.956;2022-12-07T09:14:35;98269.38;;;2.78;100.00
20156;BME280;10238;49.556;10.956;2022-12-07T09:17:23;98273.56;;;2.80;100.00
20156;BME280;10238;49.556;10.956;2022-12-07T09:20:13;98278.59;;;2.83;100.00
20156;BME280;10238;49.556;10.956;2022-12-07T09:23:01;98275.88;;;2.85;100.00
20156;BME280;10238;49.556;10.956;2022-12-07T09:25:49;98272.28;;;2.86;100.00
20156;BME280;10238;49.556;10.956;2022-12-07T09:28:38;98272.06;;;2.89;100.00
20156;BME280;10238;49.556;10.956;2022-12-07T09:31:26;98278.78;;;2.93;100.00
20156;BME280;10238;49.556;10.956;2022-12-07T09:34:14;98265.44;;;2.96;100.00
20156;BME280;10238;49.556;10.956;2022-12-07T09:37:04;98266.16;;;2.98;100.00
20156;BME280;10238;49.556;10.956;2022-12-07T09:39:52;98269.53;;;3.00;100.00
20156;BME280;10238;49.556;10.956;2022-12-07T09:42:44;98272.66;;;3.05;100.00
20156;BME280;10238;49.556;10.956;2022-12-07T09:45:37;98270.78;;;3.07;100.00
20156;BME280;10238;49.556;10.956;2022-12-07T09:48:34;98267.19;;;3.08;100.00
20156;BME280;10238;49.556;10.956;2022-12-07T09:51:24;98264.34;;;3.11;100.00
20156;BME280;10238;49.556;10.956;2022-12-07T09:54:15;98268.53;;;3.13;100.00
20156;BME280;10238;49.556;10.956;2022-12-07T09:57:03;98266.53;;;3.17;100.00
20156;BME280;10238;49.556;10.956;2022-12-07T09:59:51;98261.06;;;3.20;100.00
20156;BME280;10238;49.556;10.956;2022-12-07T10:02:41;98250.31;;;3.23;100.00
20156;BME280;10238;49.556;10.956;2022-12-07T10:05:31;98253.66;;;3.25;100.00
20156;BME280;10238;49.556;10.956;2022-12-07T10:08:20;98253.44;;;3.28;100.00
20156;BME280;10238;49.556;10.956;2022-12-07T10:11:10;98264.56;;;3.31;100.00
20156;BME280;10238;49.556;10.956;2022-12-07T10:14:11;98253.84;;;3.34;100.00
20156;BME280;10238;49.556;10.956;2022-12-07T10:17:00;98253.63;;;3.37;100.00
20156;BME280;10238;49.556;10.956;2022-12-07T10:19:49;98256.13;;;3.39;100.00
20156;BME280;10238;49.556;10.956;2022-12-07T10:22:37;98248.94;;;3.41;100.00
20156;BME280;10238;49.556;10.956;2022-12-07T10:25:29;98243.47;;;3.44;100.00
20156;BME280;10238;49.556;10.956;2022-12-07T10:28:21;98236.34;;;3.46;100.00
20156;BME280;10238;49.556;10.956;2022-12-07T10:31:17;98239.69;;;3.48;100.00
20156;BME280;10238;49.556;10.956;2022-12-07T10:34:20;98232.63;;;3.48;100.00
20156;BME280;10238;49.556;10.956;2022-12-07T10:37:19;98235.88;;;3.52;100.00
20156;BME280;10238;49.556;10.956;2022-12-07T10:40:28;98237.53;;;3.53;100.00
20156;BME280;10238;49.556;10.956;2022-12-07T10:43:20;98230.41;;;3.55;100.00
20156;BME280;10238;49.556;10.956;2022-12-07T10:49:52;98240.69;;;3.58;100.00
20156;BME280;10238;49.556;10.956;2022-12-07T10:52:53;98233.72;;;3.57;100.00
20156;BME280;10238;49.556;10.956;2022-12-07T10:56:02;98237.09;;;3.59;100.00
20156;BME280;10238;49.556;10.956;2022-12-07T10:59:09;98234.34;;;3.60;100.00
20156;BME280;10238;49.556;10.956;2022-12-07T11:02:12;98229.94;;;3.61;100.00
20156;BME280;10238;49.556;10.956;2022-12-07T11:05:17;98232.47;;;3.62;100.00
20156;BME280;10238;49.556;10.956;2022-12-07T11:08:21;98221.84;;;3.64;100.00
20156;BME280;10238;49.556;10.956;2022-12-07T11:11:22;98213.09;;;3.63;100.00
20156;BME280;10238;49.556;10.956;2022-12-07T11:14:22;98212.97;;;3.65;100.00
20156;BME280;10238;49.556;10.956;2022-12-07T11:17:20;98215.38;;;3.68;100.00
20156;BME280;10238;49.556;10.956;2022-12-07T11:20:22;98213.50;;;3.70;100.00
20156;BME280;10238;49.556;10.956;2022-12-07T11:23:21;98209.16;;;3.69;100.00
20156;BME280;10238;49.556;10.956;2022-12-07T11:26:19;98200.94;;;3.73;100.00
20156;BME280;10238;49.556;10.956;2022-12-07T11:29:27;98197.22;;;3.76;100.00
20156;BME280;10238;49.556;10.956;2022-12-07T11:32:25;98199.75;;;3.77;100.00
20156;BME280;10238;49.556;10.956;2022-12-07T11:35:24;98193.44;;;3.80;100.00
20156;BME280;10238;49.556;10.956;2022-12-07T11:38:20;98195.94;;;3.81;100.00
20156;BME280;10238;49.556;10.956;2022-12-07T11:41:17;98191.50;;;3.82;100.00
20156;BME280;10238;49.556;10.956;2022-12-07T11:44:19;98186.25;;;3.82;100.00
20156;BME280;10238;49.556;10.956;2022-12-07T11:47:18;98187.72;;;3.86;100.00
20156;BME280;10238;49.556;10.956;2022-12-07T11:50:23;98182.56;;;3.84;100.00
20156;BME280;10238;49.556;10.956;2022-12-07T11:53:17;98189.38;;;3.87;100.00
20156;BME280;10238;49.556;10.956;2022-12-07T11:56:11;98186.75;;;3.87;100.00
20156;BME280;10238;49.556;10.956;2022-12-07T11:59:03;98184.97;;;3.87;100.00
20156;BME280;10238;49.556;10.956;2022-12-07T12:01:58;98189.38;;;3.87;100.00
20156;BME280;10238;49.556;10.956;2022-12-07T12:04:55;98181.38;;;3.88;100.00
20156;BME280;10238;49.556;10.956;2022-12-07T12:07:48;98176.13;;;3.88;100.00
20156;BME280;10238;49.556;10.956;2022-12-07T12:11:06;98178.84;;;3.87;100.00
20156;BME280;10238;49.556;10.956;2022-12-07T12:14:27;98181.25;;;3.90;100.00
20156;BME280;10238;49.556;10.956;2022-12-07T12:18:05;98171.81;;;3.87;100.00
20156;BME280;10238;49.556;10.956;2022-12-07T12:21:02;98172.63;;;3.88;100.00
20156;BME280;10238;49.556;10.956;2022-12-07T12:23:56;98171.69;;;3.89;100.00
20156;BME280;10238;49.556;10.956;2022-12-07T12:26:51;98171.69;;;3.89;100.00
20156;BME280;10238;49.556;10.956;2022-12-07T12:29:42;98161.19;;;3.89;100.00
20156;BME280;10238;49.556;10.956;2022-12-07T12:32:36;98154.47;;;3.85;100.00
20156;BME280;10238;49.556;10.956;2022-12-07T12:35:32;98162.25;;;3.86;100.00
20156;BME280;10238;49.556;10.956;2022-12-07T12:38:34;98161.41;;;3.86;100.00
20156;BME280;10238;49.556;10.956;2022-12-07T12:41:51;98159.72;;;3.85;100.00
20156;BME280;10238;49.556;10.956;2022-12-07T12:45:19;98156.16;;;3.86;100.00
20156;BME280;10238;49.556;10.956;2022-12-07T12:48:29;98146.59;;;3.85;100.00
20156;BME280;10238;49.556;10.956;2022-12-07T12:51:38;98156.16;;;3.86;100.00
20156;BME280;10238;49.556;10.956;2022-12-07T12:54:29;98154.47;;;3.85;100.00
20156;BME280;10238;49.556;10.956;2022-12-07T12:57:24;98151.13;;;3.83;100.00
20156;BME280;10238;49.556;10.956;2022-12-07T13:00:18;98145.75;;;3.84;100.00
20156;BME280;10238;49.556;10.956;2022-12-07T13:03:24;98145.66;;;3.86;100.00
20156;BME280;10238;49.556;10.956;2022-12-07T13:06:19;98139.66;;;3.84;100.00
20156;BME280;10238;49.556;10.956;2022-12-07T13:09:19;98140.63;;;3.83;100.00
20156;BME280;10238;49.556;10.956;2022-12-07T13:12:14;98140.63;;;3.83;100.00
20156;BME280;10238;49.556;10.956;2022-12-07T13:15:19;98135.59;;;3.80;100.00
20156;BME280;10238;49.556;10.956;2022-12-07T13:18:34;98135.38;;;3.83;100.00
20156;BME280;10238;49.556;10.956;2022-12-07T13:21:41;98134.53;;;3.82;100.00
20156;BME280;10238;49.556;10.956;2022-12-07T13:24:32;98135.25;;;3.84;100.00
20156;BME280;10238;49.556;10.956;2022-12-07T13:27:22;98135.13;;;3.86;100.00
20156;BME280;10238;49.556;10.956;2022-12-07T13:30:15;98135.81;;;3.88;100.00
20156;BME280;10238;49.556;10.956;2022-12-07T13:33:04;98136.78;;;3.87;100.00
20156;BME280;10238;49.556;10.956;2022-12-07T13:35:54;98134.91;;;3.89;100.00
20156;BME280;10238;49.556;10.956;2022-12-07T13:38:53;98131.53;;;3.87;100.00
20156;BME280;10238;49.556;10.956;2022-12-07T13:41:42;98137.75;;;3.86;100.00
20156;BME280;10238;49.556;10.956;2022-12-07T13:44:39;98133.44;;;3.85;100.00
20156;BME280;10238;49.556;10.956;2022-12-07T13:47:34;98127.38;;;3.84;100.00
20156;BME280;10238;49.556;10.956;2022-12-07T13:50:25;98137.88;;;3.84;100.00
20156;BME280;10238;49.556;10.956;2022-12-07T13:53:14;98137.88;;;3.84;100.00
20156;BME280;10238;49.556;10.956;2022-12-07T13:56:02;98132.63;;;3.84;100.00
20156;BME280;10238;49.556;10.956;2022-12-07T13:58:50;98133.44;;;3.85;100.00
20156;BME280;10238;49.556;10.956;2022-12-07T14:01:40;98135.38;;;3.83;100.00
20156;BME280;10238;49.556;10.956;2022-12-07T14:04:36;98137.03;;;3.84;100.00
20156;BME280;10238;49.556;10.956;2022-12-07T14:07:25;98134.53;;;3.82;100.00
20156;BME280;10238;49.556;10.956;2022-12-07T14:10:24;98134.41;;;3.84;100.00
20156;BME280;10238;49.556;10.956;2022-12-07T14:13:29;98130.09;;;3.83;100.00
20156;BME280;10238;49.556;10.956;2022-12-07T14:16:23;98129.25;;;3.82;100.00
20156;BME280;10238;49.556;10.956;2022-12-07T14:19:47;98133.66;;;3.82;100.00
20156;BME280;10238;49.556;10.956;2022-12-07T14:22:37;98126.75;;;3.81;100.00
20156;BME280;10238;49.556;10.956;2022-12-07T14:25:26;98145.28;;;3.79;100.00
20156;BME280;10238;49.556;10.956;2022-12-07T14:28:26;98137.72;;;3.75;100.00
20156;BME280;10238;49.556;10.956;2022-12-07T14:31:16;98136.06;;;3.74;100.00
20156;BME280;10238;49.556;10.956;2022-12-07T14:34:15;98123.75;;;3.74;100.00
20156;BME280;10238;49.556;10.956;2022-12-07T14:37:06;98120.41;;;3.72;100.00
20156;BME280;10238;49.556;10.956;2022-12-07T14:39:55;98117.19;;;3.69;100.00
20156;BME280;10238;49.556;10.956;2022-12-07T14:42:44;98119.56;;;3.72;100.00
20156;BME280;10238;49.556;10.956;2022-12-07T14:45:33;98117.91;;;3.71;100.00
20156;BME280;10238;49.556;10.956;2022-12-07T14:48:21;98118.88;;;3.70;100.00
20156;BME280;10238;49.556;10.956;2022-12-07T14:51:29;98120.63;;;3.58;100.00
20156;BME280;10238;49.556;10.956;2022-12-07T14:54:39;98121.22;;;3.62;100.00
20156;BME280;10238;49.556;10.956;2022-12-07T14:57:29;98117.19;;;3.58;100.00
20156;BME280;10238;49.556;10.956;2022-12-07T15:00:18;98112.84;;;3.57;100.00
20156;BME280;10238;49.556;10.956;2022-12-07T15:03:06;98114.16;;;3.51;100.00
20156;BME280;10238;49.556;10.956;2022-12-07T15:05:54;98108.09;;;3.51;100.00
20156;BME280;10238;49.556;10.956;2022-12-07T15:08:42;98116.78;;;3.51;100.00